AirNav   Air Wisconsin pilot careers
 
 362 users online  

T00 Chambers County Airport
Anahuac, Texas, USA

GOING TO ANAHUAC?


FAA INFORMATION EFFECTIVE 24 MAY 2018

Location

FAA Identifier: T00
Lat/Long: 29-46-11.3332N / 094-39-48.5535W
29-46.188887N / 094-39.809225W
29.7698148 / -94.6634871
(estimated)
Elevation: 21.2 ft. / 6.5 m (surveyed)
Variation: 05E (1995)
From city: 1 mile E of ANAHUAC, TX
Time zone: UTC -5 (UTC -6 during Standard Time)
Zip code: 77514

Airport Operations

Airport use: Open to the public
Activation date: 10/1978
Control tower: no
ARTCC: HOUSTON CENTER
FSS: MONTGOMERY COUNTY FLIGHT SERVICE STATION
NOTAMs facility: CXO (NOTAM-D service available)
Attendance: MON-FRI 0800-1700
Wind indicator: lighted
Segmented circle: yes
Lights: DUSK-DAWN. MIRL RY 12/30 PRESET LOW INTST; TO INCR INTST ACTVT - CTAF.
Beacon: white-green (lighted land airport)
Operates sunset to sunrise.

Airport Communications

CTAF: 122.9
HOUSTON APPROACH: 134.45 [0600-0000]
HOUSTON DEPARTURE: 134.45 [0600-0000]
BORRN DP: 134.45
DREMR DP: 134.45
INDIE DP: 134.45
KARRR DP: 134.45
LURIC DP: 134.45
MMALT DP: 134.45
STRYA DP: 134.45
STYCK DP: 134.45
WATFO DP: 134.45
WYLSN DP: 134.45

Nearby radio navigation aids

VOR radial/distance  VOR name  Freq  Var
MHFr011/14.1TRINITY VOR/DME113.6007E
DASr177/25.2DAISETTA VORTAC116.9005E
VUHr014/31.9SCHOLES VOR/DME113.0006E
HUBr073/32.7HOBBY VOR/DME117.1005E
SBIr272/33.0SABINE PASS VOR/DME115.4007E
BPTr246/35.3BEAUMONT VOR/DME114.5007E
IAHr103/37.2HUMBLE VORTAC116.6005E

 
NDB name  Hdg/Dist  Freq  Var  ID
GALVESTON002/26.620608EGLS --. .-.. ...
GOODHUE226/29.636807EGDE --. -.. .
NIXIN110/31.732605EBVP -... ...- .--.
HARDIN COUNTY208/39.952404EHRD .... .-. -..

Airport Services

Fuel available: 100LL JET-A
Parking: tiedowns
Bottled oxygen: NONE
Bulk oxygen: NONE

Runway Information

Runway 12/30

Dimensions: 3005 x 60 ft. / 916 x 18 m
Surface: asphalt, in fair condition
Weight bearing capacity: 
Single wheel: 13.0
Runway edge lights: medium intensity
Runway edge markings: MARKINGS FADED.
RUNWAY 12  RUNWAY 30
Latitude: 29-46.363987N29-46.053815N
Longitude: 094-39.966058W094-39.522763W
Elevation: 20.4 ft.20.4 ft.
Traffic pattern: leftright
Runway heading: 124 magnetic, 129 true304 magnetic, 309 true
Markings: nonprecision, in poor conditionnonprecision, in poor condition
Visual slope indicator: 2-light PAPI on left (4.00 degrees glide path)
Touchdown point: yes, no lightsyes, no lights
Obstructions: 30 ft. pole, 875 ft. from runway, 171 ft. left of centerline, 22:1 slope to clear15 ft. road, 530 ft. from runway, 280 ft. left of centerline, 22:1 slope to clear

Runway 17/35

Dimensions: 1900 x 300 ft. / 579 x 91 m
Surface: turf, in good condition
Runway edge markings: 17/35 OUTLINED BY STRIP MARKERS.
RUNWAY 17  RUNWAY 35
Latitude: 29-46.313965N29-46.000500N
Longitude: 094-39.911733W094-39.911733W
Elevation: 20.0 ft.20.0 ft.
Gradient: 0.1%0.1%
Traffic pattern: leftright
Runway heading: 175 magnetic, 180 true355 magnetic, 000 true
Obstructions: 56 ft. trees, 852 ft. from runway, 119 ft. left of centerline, 15:1 slope to clear15 ft. road, 230 ft. from runway, 15:1 slope to clear

Airport Ownership and Management from official FAA records

Ownership: Publicly-owned
Owner: CHAMBERS COUNTY
PO BOX 938
ANAHUAC, TX 77514
Phone 409-267-2719
Manager: KELLY TRAHAN
PO BOX 938
ANAHUAC, TX 77514
Phone 409-267-2719

Airport Operational Statistics

Aircraft based on the field: 7
Single engine airplanes: 5
Multi engine airplanes: 1
Ultralights: 1
    
Aircraft operations: avg 46/week *
67% local general aviation
33% transient general aviation
* for 12-month period ending 28 March 2017

Additional Remarks

RWY 17/35 SOFT WHEN WET.
RWY 17/35 USE EXTREME CARE; PAPI RY 12 LOCATED NORTH LIMITS OF TURF RWY.
FOR CD CTC HOUSTON APCH AT 281-443-5844 TO CNL IFR CALL 281-443-5888.
TAXIWAY BRAVO HAS A POT HOLE AND BROKEN ASPHALT.

Instrument Procedures

NOTE: All procedures below are presented as PDF files. If you need a reader for these files, you should download the free Adobe Reader.

NOT FOR NAVIGATION. Please procure official charts for flight.
FAA instrument procedures published for use from 24 May 2018 at 0901Z to 21 June 2018 at 0900Z.

 
STARs - Standard Terminal Arrivals
BLUBELL THREE   download (295KB)
CESAN FOUR (RNAV)   2 pages: [1] [2] (361KB)
HUDZY THREE   2 pages: [1] [2] (325KB)
OHIIO FOUR   download (294KB)
TCHDN TWO   2 pages: [1] [2] (355KB)
TKNIQ TWO (RNAV)   2 pages: [1] [2] (286KB)
WAPPL FOUR (RNAV)   2 pages: [1] [2] (380KB)
WAPPL FOUR (RNAV), CONT.2   download (264KB)
 
IAPs - Instrument Approach Procedures
RNAV (GPS) RWY 12   download (166KB)
 
Departure Procedures
BLTWY FOUR (RNAV)   2 pages: [1] [2] (166KB)
BORRN THREE (RNAV)   2 pages: [1] [2] (258KB)
HOODO FIVE (RNAV)   2 pages: [1] [2] (216KB)
INDIE FIVE (RNAV)   2 pages: [1] [2] (190KB)
KARRR FOUR (RNAV)   2 pages: [1] [2] (208KB)
LURIC FIVE (RNAV)   2 pages: [1] [2] (211KB)
MMALT THREE (RNAV)   2 pages: [1] [2] (222KB)
STRYA FIVE (RNAV)   2 pages: [1] [2] (199KB)
STYCK FIVE (RNAV)   download (154KB)
WATFO FOUR (RNAV)   download (136KB)
WYLSN FIVE (RNAV)   download (141KB)
NOTE: Special Take-Off Minimums/Departure Procedures apply   download (70KB)

Other nearby airports with instrument procedures:

54T - RWJ Airpark (10 nm W)
KHPY - Baytown Airport (15 nm W)
T78 - Liberty Municipal Airport (19 nm N)
T41 - La Porte Municipal Airport (22 nm W)
KEFD - Ellington Airport (28 nm W)
 
Loc | Ops | Rwys | IFR | FBO | Links
Com | Nav | Svcs | Stats | Notes

AirNav Hotels Sweepstakes
 
Area around T00 (Chambers County Airport)
 
Road maps at: MapQuest Bing Google
 
Aerial photo
WARNING: Photo may not be current or correct
Aerial photo of T00 (Chambers County Airport)
Photo taken 04-Mar-2007
on final for runway 30

Do you have a better or more recent aerial photo of Chambers County Airport that you would like to share? If so, please send us your photo.

 
Sectional chart

 
Airport distance calculator
Flying to Chambers County Airport? Find the distance to fly.

From to T00

Sunrise and sunset
Times for 21-Jun-2018
 Local
(UTC-5)
 Zulu
(UTC)
Morning civil twilight05:5210:52
Sunrise06:2011:20
Sunset20:2101:21
Evening civil twilight20:4901:49

Current date and time
Zulu (UTC)  21-Jun-2018 08:40:23
Local (UTC-5)  21-Jun-2018 03:40:23
 
METAR
KEFD 
28nm W 
210650Z 00000KT 10SM BKN100 OVC250 25/24 A2990
KBMT 
29nm NE 
210815Z AUTO 00000KT 10SM SCT020 SCT075 BKN085 25/23 A2989 RMK AO2 T02450232
KGLS 
32nm S 
210817Z AUTO 18007KT 9SM SCT016 SCT065 BKN110 27/27 A2986 RMK AO2 T02720267
KHOU 
33nm W 
210753Z 00000KT 8SM FEW045 OVC110 25/25 A2986 RMK AO2 SLP115 T02500250
KLVJ 
34nm SW 
210753Z AUTO 00000KT 8SM SCT080 26/26 A2987 RMK AO2 RAE0658 SLP115 P0000 T02560256
KBPT 
35nm E 
210753Z AUTO 10003KT 9SM CLR 24/23 A2988 RMK AO2 SLP116 T02440233
KXIH 
36nm S 
210815Z AUTO 16013KT 7SM FEW029 BKN050 28/25 A2985 RMK A01
KIAH 
39nm W 
210820Z 36005KT 10SM FEW008 BKN020 BKN040 OVC130 25/24 A2987 RMK AO2 BKN020 V SCT T02500244
K6R3 
39nm NW 
210815Z AUTO 00000KT 7SM SCT003 SCT095 OVC120 24/23 A2990 RMK AO2 T02350225
KAXH 
45nm W 
210815Z AUTO 00000KT 7SM SCT085 23/23 A2987 RMK AO2 T02330232
TAF
KEFD 
28nm W 
201637Z 2016/2118 15012G18KT 6000 -SHRA SCT010 BKN020 QNH2981INS BECMG 2102/2103 15009KT 9999 NSW BKN025 QNH2985INS TX31/2021Z TN22/2111Z
KGLS 
32nm S 
210805Z 2108/2206 16007KT P6SM VCSH SCT015 BKN025 BKN050 FM211100 15006KT P6SM VCSH SCT015 BKN035 FM211500 14006KT P6SM OVC100
KHOU 
33nm W 
210520Z 2106/2206 11005KT P6SM SCT005 BKN050 FM210900 12006KT P6SM VCSH BKN015 FM211400 16006KT P6SM VCSH SCT035 BKN050
KBPT 
35nm E 
210520Z 2106/2206 VRB06KT P6SM VCTS FEW018 BKN040CB OVC100 FM211200 VRB03KT P6SM VCTS SCT015 BKN025CB OVC045 FM211500 20007KT P6SM VCTS FEW020 SCT030CB OVC050
NOTAMs
Click for the latest NOTAMs
NOTAMs are issued by the DoD/FAA and will open in a separate window not controlled by AirNav.

 

 
 

FBO, Fuel Providers, and Aircraft Ground Support

  
 Business Name 
 
 Contact 
 
 Services / Description 
 
Fuel Prices
 
Comments
  
Chambers County Anahuac Airport 409-267-2719
no information available

If you are affiliated with Chambers County Anahuac Airport and would like to show here your services, contact info, web link, logo, and more, click here
100LL Jet A
SS $4.00 $3.35 
 Updated 11-Jun-2018
 
   3 read write
SS=Self service
Update Fuel Prices
 

Would you like to see your business listed on this page?

 If your business provides an interesting product or service to pilots, flight crews, aircraft, or users of the Chambers County Airport, you should consider listing it here.  To start the listing process, click on the button below
 
Add a business
 

Other Pages about Chambers County Airport

www.co.chambers.tx.us/...
 
Update a link
 
Copyright © AirNav, LLC. All rights reserved. Privacy Policy  Contact